Terminal Aerodrome Forecast
Issued by NWS Mt. Holly, NJ

Current Version | Previous Version | Text Only | Print | Product List | Glossary On
Versions: 1 2 3 4 5 6 7 8 9 10 11 12 13 14 15 16 17 18
000
FTUS41 KPHI 050542
TAFTTN
TAF
KTTN 050542Z 0506/0606 32004KT P6SM SCT080 BKN150
     FM051500 30008KT P6SM SCT250
     FM051900 30009G17KT P6SM SCT050
     FM060000 32007KT P6SM BKN060
     FM060200 35004KT P6SM FEW060=

USA.gov is the U.S. government's official web portal to all federal, state and local government web resources and services.